Time;durP1;ratioP1;P1;durP2;ratioP2;P2;SDS_P1;SDS_P2;PMS_P1;PMS_P2;Temp;Humidity;BMP_temperature;BMP_pressure;BME280_temperature;BME280_humidity;BME280_pressure;Samples;Min_cycle;Max_cycle;Signal;HPM_P1;HPM_P2
2022/03/18 00:00:39;;;;;;;10.52;6.72;;;;;;;2.65;67.98;95405.88;5042875;28;20022;-83
2022/03/18 00:03:05;;;;;;;12.95;6.47;;;;;;;2.63;68.33;95406.09;5043076;28;20084;-83
2022/03/18 00:05:32;;;;;;;10.45;6.07;;;;;;;2.59;68.14;95405.75;5042171;28;20048;-82
2022/03/18 00:08:00;;;;;;;8.88;5.85;;;;;;;2.55;68.08;95396.69;5042971;28;20093;-83
2022/03/18 00:10:26;;;;;;;10.02;5.93;;;;;;;2.54;67.85;95405.59;5041674;28;20066;-83
2022/03/18 00:12:52;;;;;;;7.93;5.28;;;;;;;2.53;67.45;95413.75;5042665;28;20033;-83
2022/03/18 00:15:19;;;;;;;8.32;5.25;;;;;;;2.51;66.84;95411.31;5043214;28;20251;-83
2022/03/18 00:17:44;;;;;;;8.45;5.43;;;;;;;2.50;67.67;95412.34;5042996;28;20032;-83
2022/03/18 00:20:13;;;;;;;9.10;5.93;;;;;;;2.43;67.04;95403.75;5042772;28;20311;-83
2022/03/18 00:22:43;;;;;;;9.63;6.25;;;;;;;2.40;66.80;95409.44;5024897;28;20223;-84
2022/03/18 00:25:10;;;;;;;9.20;5.72;;;;;;;2.34;67.07;95423.50;5025109;28;20100;-83
2022/03/18 00:27:36;;;;;;;10.43;5.55;;;;;;;2.27;67.17;95417.53;5042751;28;20029;-84
2022/03/18 00:30:03;;;;;;;8.85;5.43;;;;;;;2.29;67.04;95415.47;5042675;28;20032;-83
2022/03/18 00:32:29;;;;;;;9.40;5.93;;;;;;;2.21;66.86;95430.53;5042231;28;20029;-84
2022/03/18 00:34:54;;;;;;;9.98;6.20;;;;;;;2.18;67.13;95433.63;5042378;28;20324;-83
2022/03/18 00:37:20;;;;;;;10.70;6.00;;;;;;;2.14;67.24;95435.09;5042700;28;20073;-84
2022/03/18 00:39:46;;;;;;;9.40;6.03;;;;;;;2.13;67.46;95432.66;5042701;28;20029;-83
2022/03/18 00:42:13;;;;;;;9.80;6.07;;;;;;;2.12;67.63;95429.25;5042619;28;20022;-83
2022/03/18 00:44:44;;;;;;;8.40;5.70;;;;;;;2.18;67.18;95435.44;5042621;28;20028;-84
2022/03/18 00:52:38;;;;;;;13.10;5.78;;;;;;;2.17;66.94;95434.63;5042468;28;20072;-83
2022/03/18 00:55:04;;;;;;;10.90;6.45;;;;;;;2.12;66.94;95434.50;5024722;28;20263;-83
2022/03/18 00:57:30;;;;;;;9.13;6.10;;;;;;;2.14;66.86;95440.34;5024868;28;20025;-83
2022/03/18 00:59:57;;;;;;;9.55;5.85;;;;;;;2.16;66.99;95442.75;5042402;28;20017;-83
2022/03/18 01:02:23;;;;;;;10.27;6.43;;;;;;;2.19;66.77;95452.81;5024806;28;20101;-83
2022/03/18 01:04:50;;;;;;;10.82;6.00;;;;;;;2.17;66.85;95445.16;5042446;28;20021;-83
2022/03/18 01:07:16;;;;;;;10.52;6.57;;;;;;;2.22;66.48;95457.66;5042060;28;20083;-83
2022/03/18 01:09:42;;;;;;;10.15;6.72;;;;;;;2.23;66.51;95450.56;5024741;28;20255;-83
2022/03/18 01:12:08;;;;;;;10.23;6.45;;;;;;;2.23;66.60;95450.56;5024538;28;20032;-83
2022/03/18 01:14:33;;;;;;;9.43;6.50;;;;;;;2.22;66.55;95441.88;5042199;28;20224;-83
2022/03/18 01:16:59;;;;;;;11.68;7.07;;;;;;;2.25;66.62;95440.63;5042993;28;20025;-83
2022/03/18 01:19:24;;;;;;;10.18;6.95;;;;;;;2.25;66.72;95454.56;5045861;28;20022;-84
2022/03/18 01:21:50;;;;;;;12.90;7.70;;;;;;;2.23;66.50;95454.00;5046161;28;20037;-83
2022/03/18 01:24:16;;;;;;;9.25;6.25;;;;;;;2.19;66.24;95448.34;5045952;28;20014;-83
2022/03/18 01:26:41;;;;;;;9.40;6.28;;;;;;;2.16;66.58;95448.81;5045906;28;20334;-84
2022/03/18 01:29:07;;;;;;;9.48;6.75;;;;;;;2.20;66.65;95449.97;5045969;28;20023;-83
2022/03/18 01:31:32;;;;;;;13.02;7.20;;;;;;;2.20;66.70;95449.97;5045753;28;20075;-83
2022/03/18 01:34:01;;;;;;;11.40;6.32;;;;;;;2.24;66.59;95449.53;5045467;28;20029;-84
2022/03/18 01:36:26;;;;;;;10.05;6.80;;;;;;;2.21;66.65;95446.31;5045933;28;20156;-83
2022/03/18 01:38:52;;;;;;;10.15;7.22;;;;;;;2.21;66.43;95456.84;5045801;28;20025;-83
2022/03/18 01:41:20;;;;;;;13.30;6.70;;;;;;;2.21;66.27;95440.25;5045642;28;20296;-83
2022/03/18 01:43:46;;;;;;;9.60;7.13;;;;;;;2.20;66.29;95443.91;5045473;28;20020;-84
2022/03/18 01:46:18;;;;;;;10.20;6.50;;;;;;;2.20;66.26;95439.47;5045569;28;20017;-83
2022/03/18 01:48:44;;;;;;;10.07;6.25;;;;;;;2.20;66.02;95446.56;5045713;28;20063;-83
2022/03/18 01:51:15;;;;;;;9.75;5.90;;;;;;;2.16;66.17;95459.34;5045507;28;20022;-83
2022/03/18 01:53:43;;;;;;;11.70;7.13;;;;;;;2.16;66.23;95445.38;5045401;28;20071;-84
2022/03/18 01:56:08;;;;;;;9.98;6.57;;;;;;;2.16;66.30;95440.94;5045542;28;20041;-83
2022/03/18 01:58:34;;;;;;;9.88;6.55;;;;;;;2.14;66.35;95450.88;5045271;28;20323;-82
2022/03/18 02:01:00;;;;;;;10.55;6.82;;;;;;;2.19;66.02;95451.00;5044990;28;20040;-82
2022/03/18 02:03:25;;;;;;;9.98;6.55;;;;;;;2.18;66.26;95456.50;5045331;28;20075;-81
2022/03/18 02:05:51;;;;;;;12.15;7.40;;;;;;;2.18;66.19;95459.91;5045174;28;20029;-83
2022/03/18 02:08:17;;;;;;;9.68;6.53;;;;;;;2.18;66.39;95454.66;5045059;28;20025;-83
2022/03/18 02:10:43;;;;;;;11.10;7.05;;;;;;;2.21;66.38;95456.84;5045143;28;20017;-83
2022/03/18 02:13:09;;;;;;;10.77;7.60;;;;;;;2.17;66.63;95453.03;5044873;28;20037;-83
2022/03/18 02:15:37;;;;;;;10.48;6.85;;;;;;;2.19;66.37;95452.81;5044933;28;20100;-83
2022/03/18 02:18:05;;;;;;;13.38;8.18;;;;;;;2.24;65.62;95449.53;5044595;28;20033;-83
2022/03/18 02:20:37;;;;;;;11.93;7.47;;;;;;;2.25;65.65;95456.41;5045025;28;20092;-83
2022/03/18 02:23:06;;;;;;;13.27;8.13;;;;;;;2.20;65.21;95447.34;5044877;28;20032;-82
2022/03/18 02:25:39;;;;;;;11.60;8.05;;;;;;;2.20;65.10;95455.25;5044635;28;20464;-82
2022/03/18 02:28:04;;;;;;;15.40;8.45;;;;;;;2.14;64.95;95450.88;5026368;28;20029;-82
2022/03/18 02:30:34;;;;;;;12.55;8.68;;;;;;;2.14;64.68;95450.88;5043984;28;20025;-82
2022/03/18 02:33:01;;;;;;;15.07;7.68;;;;;;;2.15;64.21;95452.47;5044400;28;20096;-82
2022/03/18 02:35:28;;;;;;;12.90;8.43;;;;;;;2.13;64.85;95459.75;5044849;28;20108;-83
2022/03/18 02:37:57;;;;;;;15.35;8.80;;;;;;;2.10;64.43;95473.38;5044713;28;20365;-82
2022/03/18 02:40:26;;;;;;;15.90;9.57;;;;;;;2.07;64.60;95475.63;5044394;28;20099;-83
2022/03/18 02:42:52;;;;;;;13.57;8.02;;;;;;;2.02;64.54;95471.03;5044946;28;20021;-83
2022/03/18 02:45:18;;;;;;;17.77;9.25;;;;;;;2.00;64.81;95475.72;5044464;28;20108;-83
2022/03/18 02:47:48;;;;;;;15.35;9.48;;;;;;;2.01;64.92;95482.56;5044418;28;20066;-83
2022/03/18 02:50:16;;;;;;;13.68;8.90;;;;;;;2.03;64.95;95485.78;5026591;28;20029;-83
2022/03/18 02:52:43;;;;;;;13.27;8.48;;;;;;;2.03;65.41;95488.41;5044265;28;20071;-83
2022/03/18 02:55:09;;;;;;;16.25;9.48;;;;;;;2.05;65.61;95488.19;5044252;28;20287;-83
2022/03/18 02:57:35;;;;;;;15.77;9.32;;;;;;;2.05;65.82;95489.00;5044215;28;20259;-83
2022/03/18 03:00:06;;;;;;;11.98;8.02;;;;;;;2.05;65.81;95489.00;5044225;28;20032;-82
2022/03/18 03:02:31;;;;;;;13.77;9.10;;;;;;;2.06;65.40;95495.09;5043936;28;20024;-82
2022/03/18 03:07:59;;;;;;;12.98;8.60;;;;;;;2.04;65.67;95497.94;5043546;28;20079;-83
2022/03/18 03:10:26;;;;;;;13.10;9.10;;;;;;;2.04;65.75;95503.19;5044156;28;20032;-83
2022/03/18 03:12:51;;;;;;;13.07;8.93;;;;;;;2.02;65.77;95493.91;5043785;28;20106;-82
2022/03/18 03:15:17;;;;;;;14.45;9.30;;;;;;;2.00;65.63;95494.91;5043970;28;20391;-83
2022/03/18 03:17:43;;;;;;;16.20;10.20;;;;;;;2.03;65.81;95496.31;5043785;28;20059;-82
2022/03/18 03:20:09;;;;;;;14.02;9.50;;;;;;;2.02;65.54;95493.91;5043736;28;20025;-83
2022/03/18 03:22:37;;;;;;;16.02;9.95;;;;;;;2.00;65.64;95502.00;5025914;28;20021;-82
2022/03/18 03:25:05;;;;;;;19.48;11.10;;;;;;;2.00;65.77;95502.00;5045145;28;20045;-82
2022/03/18 03:27:31;;;;;;;17.13;10.65;;;;;;;1.99;66.13;95506.47;5045148;28;20223;-85
2022/03/18 03:30:09;;;;;;;16.10;10.38;;;;;;;1.97;65.90;95511.16;5045639;28;20032;-84
2022/03/18 03:32:35;;;;;;;18.77;12.35;;;;;;;1.94;65.44;95523.94;5044607;28;20092;-82
2022/03/18 03:35:01;;;;;;;19.23;11.02;;;;;;;1.90;65.13;95522.75;5044934;28;20072;-83
2022/03/18 03:37:28;;;;;;;17.23;10.93;;;;;;;1.84;65.41;95518.38;5043622;28;20018;-83
2022/03/18 03:39:54;;;;;;;17.83;11.45;;;;;;;1.85;65.44;95522.59;5043257;28;20254;-83
2022/03/18 03:42:19;;;;;;;17.60;11.35;;;;;;;1.84;65.53;95519.16;5043342;28;20267;-83
2022/03/18 03:44:46;;;;;;;21.02;11.95;;;;;;;1.82;65.97;95528.28;5043230;28;20052;-82
2022/03/18 03:47:14;;;;;;;18.85;12.85;;;;;;;1.79;66.05;95532.97;5043196;28;20021;-82
2022/03/18 03:49:40;;;;;;;18.67;12.13;;;;;;;1.79;65.86;95530.34;5043359;28;20371;-82
2022/03/18 03:52:08;;;;;;;17.30;11.50;;;;;;;1.80;65.97;95529.31;5043211;28;20025;-83
2022/03/18 03:54:34;;;;;;;18.88;12.02;;;;;;;1.84;65.49;95526.25;5043185;28;20048;-82
2022/03/18 03:57:00;;;;;;;19.42;11.18;;;;;;;1.82;65.74;95541.44;5043221;28;20037;-83
2022/03/18 03:59:26;;;;;;;20.83;10.57;;;;;;;1.76;64.83;95538.63;5043243;28;20201;-83
2022/03/18 04:01:52;;;;;;;17.33;10.82;;;;;;;1.64;65.10;95540.38;5043067;28;20032;-83
2022/03/18 04:04:17;;;;;;;20.50;11.63;;;;;;;1.57;65.21;95550.94;5042978;28;20089;-83
2022/03/18 04:06:43;;;;;;;17.38;9.65;;;;;;;1.57;64.49;95550.16;5042842;28;20086;-83
2022/03/18 04:09:08;;;;;;;13.52;8.25;;;;;;;1.52;64.34;95550.78;5042858;28;20021;-83
2022/03/18 04:11:34;;;;;;;15.45;10.05;;;;;;;1.54;64.75;95547.94;5042684;28;20021;-82
2022/03/18 04:14:02;;;;;;;21.85;10.40;;;;;;;1.54;65.06;95559.25;5042875;28;20025;-83
2022/03/18 04:16:28;;;;;;;23.30;9.63;;;;;;;1.55;65.21;95557.44;5042870;28;20026;-83
2022/03/18 04:18:53;;;;;;;17.90;9.93;;;;;;;1.49;65.32;95553.03;5025207;28;20292;-82
2022/03/18 04:21:19;;;;;;;16.60;10.20;;;;;;;1.48;65.41;95564.56;5042373;28;20014;-83
2022/03/18 04:23:44;;;;;;;18.17;10.73;;;;;;;1.55;65.48;95575.84;5042788;28;20036;-82
2022/03/18 04:26:10;;;;;;;20.42;11.90;;;;;;;1.57;65.62;95564.09;5042744;28;20017;-83
2022/03/18 04:28:35;;;;;;;20.60;11.57;;;;;;;1.55;65.57;95567.94;5042568;28;20017;-82
2022/03/18 04:31:01;;;;;;;18.70;10.95;;;;;;;1.59;65.33;95561.25;5042744;28;20331;-83
2022/03/18 04:33:26;;;;;;;17.08;10.35;;;;;;;1.62;65.19;95566.06;5042314;28;20037;-83
2022/03/18 04:35:52;;;;;;;18.00;11.05;;;;;;;1.66;64.88;95561.97;5042268;28;20047;-83
2022/03/18 04:38:18;;;;;;;17.08;10.85;;;;;;;1.70;63.68;95571.06;5042645;28;20375;-83
2022/03/18 04:40:43;;;;;;;16.73;9.85;;;;;;;1.67;63.38;95560.97;5042389;28;20335;-84
2022/03/18 04:43:09;;;;;;;16.25;9.55;;;;;;;1.65;63.06;95560.38;5042317;28;20021;-83
2022/03/18 04:45:35;;;;;;;16.23;9.57;;;;;;;1.67;63.14;95568.88;5042386;28;20022;-83
2022/03/18 04:48:01;;;;;;;16.30;10.13;;;;;;;1.69;62.75;95568.63;5042392;28;20430;-83
2022/03/18 04:50:27;;;;;;;18.30;10.20;;;;;;;1.68;62.83;95567.84;5042430;28;20033;-84
2022/03/18 04:52:53;;;;;;;14.27;8.88;;;;;;;1.69;62.66;95577.34;5044504;28;20096;-83
2022/03/18 04:55:18;;;;;;;17.65;9.82;;;;;;;1.68;62.99;95573.09;5046554;28;20033;-84
2022/03/18 04:57:44;;;;;;;16.23;8.43;;;;;;;1.68;62.77;95583.59;5046300;28;20044;-83
2022/03/18 05:00:10;;;;;;;11.90;7.75;;;;;;;1.68;62.47;95580.19;5046156;28;20343;-83
2022/03/18 05:02:36;;;;;;;12.55;6.88;;;;;;;1.66;61.91;95590.09;5046166;28;20021;-84
2022/03/18 05:05:03;;;;;;;13.63;7.80;;;;;;;1.62;61.94;95592.34;5046521;28;20040;-84
2022/03/18 05:07:28;;;;;;;11.15;6.63;;;;;;;1.60;62.05;95586.50;5046746;28;20021;-84
2022/03/18 05:09:56;;;;;;;10.85;7.18;;;;;;;1.58;62.27;95588.53;5046685;28;20205;-84
2022/03/18 05:12:22;;;;;;;14.07;8.05;;;;;;;1.58;62.49;95601.69;5045958;28;20028;-84
2022/03/18 05:14:49;;;;;;;15.07;7.85;;;;;;;1.56;62.51;95599.25;5046198;28;20026;-84
2022/03/18 05:17:14;;;;;;;14.68;8.82;;;;;;;1.56;62.52;95591.38;5046175;28;20108;-84
2022/03/18 05:19:40;;;;;;;13.48;8.30;;;;;;;1.56;62.50;95596.63;5046044;28;20025;-84
2022/03/18 05:22:06;;;;;;;13.45;8.20;;;;;;;1.58;62.56;95597.22;5046026;28;20069;-84
2022/03/18 05:24:32;;;;;;;14.65;8.00;;;;;;;1.56;62.32;95590.56;5046136;28;20017;-83
2022/03/18 05:26:58;;;;;;;17.70;7.43;;;;;;;1.56;62.42;95601.09;5045881;28;20021;-84
2022/03/18 05:29:25;;;;;;;15.55;7.57;;;;;;;1.54;62.21;95601.28;5045830;28;20088;-83
2022/03/18 05:31:51;;;;;;;12.07;7.47;;;;;;;1.56;61.88;95594.00;5028023;28;20275;-83
2022/03/18 05:34:17;;;;;;;21.35;10.45;;;;;;;1.56;61.53;95609.78;5045471;28;20048;-83
2022/03/18 05:36:43;;;;;;;9.50;6.32;;;;;;;1.54;60.58;95592.63;5045668;28;20028;-84
2022/03/18 05:39:09;;;;;;;14.80;7.85;;;;;;;1.52;59.94;95590.19;5045428;28;20124;-84
2022/03/18 05:41:35;;;;;;;22.08;10.85;;;;;;;1.52;59.79;95590.19;5045460;28;20022;-84
2022/03/18 05:44:01;;;;;;;17.60;8.98;;;;;;;1.57;59.62;95594.81;5045827;28;20031;-84
2022/03/18 05:46:26;;;;;;;12.50;7.88;;;;;;;1.57;59.54;95590.38;5045549;28;20032;-84
2022/03/18 05:48:52;;;;;;;15.13;7.35;;;;;;;1.58;58.93;95599.84;5045493;28;20021;-84
2022/03/18 05:51:18;;;;;;;13.85;8.10;;;;;;;1.58;59.20;95609.56;5045427;28;20112;-84
2022/03/18 05:53:44;;;;;;;14.27;8.07;;;;;;;1.64;58.77;95600.81;5045190;28;20052;-84
2022/03/18 05:58:55;;;;;;;15.45;6.97;;;;;;;1.70;59.56;95612.31;5045202;28;20071;-84
2022/03/18 06:01:20;;;;;;;20.58;7.80;;;;;;;1.74;59.52;95613.50;5045268;28;20071;-84
2022/03/18 06:03:48;;;;;;;13.98;6.97;;;;;;;1.73;59.03;95607.44;5043941;28;20022;-84
2022/03/18 06:06:14;;;;;;;14.98;6.45;;;;;;;1.74;58.78;95616.91;5044858;28;20032;-84
2022/03/18 06:14:07;;;;;;;12.57;6.20;;;;;;;1.76;59.16;95622.78;5045003;28;20035;-83
2022/03/18 06:16:33;;;;;;;12.60;5.95;;;;;;;1.75;58.72;95634.31;5044949;28;20021;-83
2022/03/18 06:18:58;;;;;;;12.55;5.47;;;;;;;1.67;58.55;95637.22;5044558;28;20315;-83
2022/03/18 06:21:24;;;;;;;12.15;5.57;;;;;;;1.67;58.13;95636.38;5044748;28;20017;-83
2022/03/18 06:23:49;;;;;;;17.05;6.25;;;;;;;1.64;57.88;95644.72;5044859;28;20013;-83
2022/03/18 06:26:15;;;;;;;11.02;5.32;;;;;;;1.56;57.16;95651.81;5044775;28;20024;-83
2022/03/18 06:28:40;;;;;;;10.02;5.88;;;;;;;1.51;57.61;95661.38;5043347;28;20024;-83
2022/03/18 06:31:06;;;;;;;16.25;6.35;;;;;;;1.43;58.01;95662.44;5044705;28;20072;-83
2022/03/18 06:33:36;;;;;;;18.88;6.65;;;;;;;1.47;57.54;95660.19;5044402;28;20040;-83
2022/03/18 06:36:02;;;;;;;18.30;6.07;;;;;;;1.52;57.20;95676.13;5044492;28;20373;-83
2022/03/18 06:38:27;;;;;;;12.07;6.15;;;;;;;1.59;57.26;95680.31;5044451;28;20021;-83
2022/03/18 06:40:52;;;;;;;15.15;6.10;;;;;;;1.71;56.60;95688.34;5044418;28;20025;-83
2022/03/18 06:43:18;;;;;;;12.75;6.55;;;;;;;1.75;56.94;95684.28;5026367;28;20017;-83
2022/03/18 06:45:44;;;;;;;13.50;6.85;;;;;;;1.83;56.01;95680.56;5044148;28;20214;-83
2022/03/18 06:48:09;;;;;;;9.35;5.68;;;;;;;1.90;54.88;95683.97;5026571;28;20017;-83
2022/03/18 06:50:35;;;;;;;13.27;5.45;;;;;;;1.93;54.47;95690.59;5044219;28;20017;-83
2022/03/18 06:53:01;;;;;;;11.35;5.97;;;;;;;2.01;53.34;95682.44;5044223;28;20017;-83
2022/03/18 06:55:27;;;;;;;10.82;5.13;;;;;;;2.07;52.94;95696.56;5044384;28;20021;-83
2022/03/18 06:57:53;;;;;;;11.70;5.40;;;;;;;2.13;52.97;95688.63;5026225;28;20258;-83
2022/03/18 07:00:18;;;;;;;14.77;6.18;;;;;;;2.23;52.38;95692.63;5044070;28;20104;-83
2022/03/18 07:02:44;;;;;;;16.38;5.68;;;;;;;2.32;52.26;95700.03;5044061;28;20071;-83
2022/03/18 07:05:09;;;;;;;13.57;5.85;;;;;;;2.34;51.70;95710.31;5043964;28;20116;-83
2022/03/18 07:07:35;;;;;;;11.30;5.65;;;;;;;2.36;51.53;95706.47;5044214;28;20021;-83
2022/03/18 07:10:00;;;;;;;13.90;6.15;;;;;;;2.44;52.76;95710.63;5043727;28;20334;-83
2022/03/18 07:12:27;;;;;;;13.60;6.82;;;;;;;2.52;53.29;95712.97;5026150;28;20028;-83
2022/03/18 07:14:53;;;;;;;14.10;6.20;;;;;;;2.55;53.41;95723.09;5043383;28;20044;-83
2022/03/18 07:20:03;;;;;;;11.73;6.28;;;;;;;2.53;51.72;95717.25;5043752;28;20068;-84
2022/03/18 07:22:28;;;;;;;15.77;6.10;;;;;;;2.53;52.07;95721.72;5043741;28;20029;-84
2022/03/18 07:24:54;;;;;;;12.65;7.13;;;;;;;2.60;52.58;95715.34;5043816;28;20028;-84
2022/03/18 07:27:19;;;;;;;12.50;6.10;;;;;;;2.63;53.28;95718.59;5043622;28;20186;-83
2022/03/18 07:29:45;;;;;;;11.35;5.40;;;;;;;2.63;52.99;95724.66;5043486;28;20025;-83
2022/03/18 07:32:10;;;;;;;12.18;5.60;;;;;;;2.64;52.13;95726.25;5043325;28;20032;-83
2022/03/18 07:34:36;;;;;;;11.40;5.57;;;;;;;2.70;52.22;95728.00;5043373;28;20402;-83
2022/03/18 07:37:03;;;;;;;18.23;5.30;;;;;;;2.74;52.10;95736.28;5043553;28;20020;-83
2022/03/18 07:39:28;;;;;;;11.50;4.95;;;;;;;2.81;51.89;95731.78;5043415;28;20021;-83
2022/03/18 07:41:54;;;;;;;19.73;5.43;;;;;;;2.91;52.12;95734.72;5043064;28;20056;-83
2022/03/18 07:44:22;;;;;;;10.55;4.28;;;;;;;2.98;49.95;95743.34;5043256;28;20096;-83
2022/03/18 07:46:48;;;;;;;11.23;5.20;;;;;;;3.05;50.01;95745.88;5043242;28;20032;-83
2022/03/18 07:49:13;;;;;;;15.10;6.22;;;;;;;3.08;49.44;95739.41;5025276;28;20025;-84
2022/03/18 07:51:39;;;;;;;11.23;5.18;;;;;;;3.13;48.75;95739.53;5043219;28;20323;-82
2022/03/18 07:54:04;;;;;;;10.57;5.07;;;;;;;3.18;48.05;95734.41;5043105;28;20379;-83
2022/03/18 07:56:30;;;;;;;15.25;6.05;;;;;;;3.24;48.67;95741.44;5042827;28;20087;-82
2022/03/18 07:58:55;;;;;;;10.65;5.05;;;;;;;3.28;47.91;95747.06;5042798;28;20045;-83
2022/03/18 08:01:21;;;;;;;14.00;5.32;;;;;;;3.31;47.62;95749.25;5042745;28;20017;-84
2022/03/18 08:03:46;;;;;;;17.90;5.50;;;;;;;3.32;48.05;95743.78;5042664;28;20071;-83
2022/03/18 08:06:12;;;;;;;15.60;5.53;;;;;;;3.29;47.98;95744.22;5042947;28;20018;-83
2022/03/18 08:08:37;;;;;;;12.32;5.72;;;;;;;3.36;47.81;95747.59;5042789;28;20017;-82
2022/03/18 08:11:04;;;;;;;9.50;4.65;;;;;;;3.41;47.70;95745.06;5043093;28;20037;-83
2022/03/18 08:13:30;;;;;;;10.50;5.47;;;;;;;3.44;47.41;95743.84;5042696;28;20053;-83
2022/03/18 08:15:55;;;;;;;9.30;4.40;;;;;;;3.45;47.14;95744.66;5042736;28;20037;-83
2022/03/18 08:18:21;;;;;;;8.18;4.50;;;;;;;3.49;46.94;95749.25;5042745;28;20092;-83
2022/03/18 08:20:53;;;;;;;10.95;5.75;;;;;;;3.54;46.67;95751.22;5025000;28;20025;-82
2022/03/18 08:23:19;;;;;;;9.40;5.03;;;;;;;3.59;45.74;95751.38;5042711;28;20013;-83
2022/03/18 08:25:45;;;;;;;9.35;4.97;;;;;;;3.60;45.52;95743.25;5042601;28;20308;-83
2022/03/18 08:28:10;;;;;;;24.15;5.72;;;;;;;3.66;46.11;95743.34;5041656;28;20021;-83
2022/03/18 08:30:40;;;;;;;15.77;5.68;;;;;;;3.62;45.28;95740.34;5042705;28;20044;-83
2022/03/18 08:33:06;;;;;;;9.25;4.30;;;;;;;3.64;44.50;95742.78;5042283;28;20045;-83
2022/03/18 08:35:32;;;;;;;14.77;4.65;;;;;;;3.65;42.82;95744.41;5042511;28;20036;-83
2022/03/18 08:37:58;;;;;;;15.20;8.40;;;;;;;3.70;43.46;95744.53;5042420;28;20032;-83
2022/03/18 08:40:30;;;;;;;17.35;7.93;;;;;;;3.80;45.75;95752.69;5024545;28;20048;-83
2022/03/18 08:42:57;;;;;;;8.98;5.07;;;;;;;3.80;43.35;95747.44;5042395;28;20251;-83
2022/03/18 08:45:23;;;;;;;11.25;4.70;;;;;;;3.78;42.08;95742.38;5024620;28;20025;-82
2022/03/18 08:47:49;;;;;;;17.23;4.97;;;;;;;3.80;42.39;95740.31;5042293;28;20017;-82
2022/03/18 08:50:17;;;;;;;15.40;5.50;;;;;;;3.84;42.71;95742.50;5042223;28;20312;-82
2022/03/18 08:52:45;;;;;;;103.03;36.35;;;;;;;3.88;44.38;95749.75;5042206;28;20100;-82
2022/03/18 08:55:15;;;;;;;16.98;9.35;;;;;;;3.94;42.83;95742.78;5042028;28;20362;-82
2022/03/18 08:57:44;;;;;;;116.72;51.13;;;;;;;3.96;41.25;95740.72;5042217;28;20037;-82
2022/03/18 09:03:20;;;;;;;10.50;5.78;;;;;;;3.90;39.90;95736.34;5041974;28;20308;-83
2022/03/18 09:05:46;;;;;;;19.90;7.68;;;;;;;3.91;39.51;95732.66;5042253;28;20021;-83
2022/03/18 09:08:13;;;;;;;11.75;5.72;;;;;;;4.03;40.39;95733.53;5042285;28;20263;-82
2022/03/18 09:10:41;;;;;;;9.00;4.72;;;;;;;4.15;39.61;95734.34;5042077;28;20092;-83
2022/03/18 09:13:53;;;;;;;14.80;4.75;;;;;;;4.14;39.78;95730.09;5042076;28;20029;-83
2022/03/18 09:16:18;;;;;;;17.77;4.43;;;;;;;4.16;39.62;95730.69;5041327;28;20231;-83
2022/03/18 09:18:46;;;;;;;8.38;4.18;;;;;;;4.16;39.60;95735.16;5042254;28;20032;-83
2022/03/18 09:21:14;;;;;;;6.65;4.25;;;;;;;4.12;40.41;95736.63;5042118;28;20025;-82
2022/03/18 09:23:56;;;;;;;11.20;5.18;;;;;;;4.25;41.08;95728.50;5042298;28;20030;-82
2022/03/18 09:26:24;;;;;;;10.82;4.95;;;;;;;4.35;41.99;95755.16;5042060;28;20017;-83
2022/03/18 09:28:49;;;;;;;9.73;5.72;;;;;;;4.49;42.67;95739.09;5024259;28;20060;-83
2022/03/18 09:31:15;;;;;;;8.15;4.72;;;;;;;4.42;41.21;95744.50;5042107;28;20059;-82
2022/03/18 09:33:42;;;;;;;12.60;6.07;;;;;;;4.50;39.87;95736.25;5041875;28;20274;-82
2022/03/18 09:36:10;;;;;;;9.98;6.38;;;;;;;4.69;39.46;95744.84;5042175;28;20048;-83
2022/03/18 09:38:36;;;;;;;10.93;5.60;;;;;;;4.79;38.54;95739.00;5043711;28;20096;-82
2022/03/18 09:41:02;;;;;;;10.88;4.90;;;;;;;4.89;38.13;95749.81;5045707;28;20017;-83
2022/03/18 09:43:38;;;;;;;10.23;5.20;;;;;;;4.97;38.20;95741.53;5045305;28;20067;-83
2022/03/18 09:46:05;;;;;;;16.10;5.43;;;;;;;5.06;38.55;95741.97;5027672;28;20045;-82
2022/03/18 09:48:33;;;;;;;19.42;6.28;;;;;;;5.14;37.79;95724.94;5045418;28;20026;-82
2022/03/18 09:50:59;;;;;;;12.27;4.63;;;;;;;5.18;37.12;95737.47;5045428;28;20017;-83
2022/03/18 09:53:25;;;;;;;10.85;5.30;;;;;;;5.22;38.08;95729.88;5045321;28;20088;-82
2022/03/18 09:55:51;;;;;;;12.95;5.47;;;;;;;5.25;36.00;95734.72;5045278;28;20017;-82
2022/03/18 09:58:21;;;;;;;7.53;4.53;;;;;;;5.32;36.32;95740.66;5027374;28;20043;-82
2022/03/18 10:00:57;;;;;;;10.10;5.57;;;;;;;5.42;36.64;95734.78;5045226;28;20021;-82
2022/03/18 10:03:34;;;;;;;12.88;6.63;;;;;;;5.60;36.56;95729.31;5045246;28;20021;-83
2022/03/18 10:06:01;;;;;;;12.48;5.63;;;;;;;5.62;35.48;95731.75;5045070;28;20025;-82
2022/03/18 10:08:39;;;;;;;9.82;5.35;;;;;;;5.68;34.95;95735.25;5027441;28;20017;-83
2022/03/18 10:11:27;;;;;;;22.10;6.85;;;;;;;5.77;35.30;95739.16;5044995;28;20030;-82
2022/03/18 10:14:25;;;;;;;13.30;7.22;;;;;;;5.79;35.63;95737.06;5044919;28;20028;-82
2022/03/18 10:16:51;;;;;;;19.48;8.32;;;;;;;5.88;35.60;95732.19;5020480;28;20095;-82
2022/03/18 10:22:33;;;;;;;14.48;5.00;;;;;;;5.98;34.62;95727.94;5013157;28;20041;-83
2022/03/18 10:25:00;;;;;;;14.27;6.57;;;;;;;6.01;33.93;95724.81;5044851;28;20027;-83
2022/03/18 10:27:26;;;;;;;13.50;5.80;;;;;;;5.97;34.75;95730.81;5044621;28;20086;-83
2022/03/18 10:29:53;;;;;;;12.05;5.30;;;;;;;5.86;34.45;95736.91;5044934;28;20029;-83
2022/03/18 10:32:20;;;;;;;20.58;6.90;;;;;;;5.75;34.59;95731.44;5044706;28;20247;-83
2022/03/18 10:37:49;;;;;;;11.60;4.90;;;;;;;5.66;34.31;95732.03;5044730;28;20370;-82
2022/03/18 10:40:34;;;;;;;11.70;5.40;;;;;;;5.69;34.46;95731.59;5044729;28;20035;-82
2022/03/18 10:43:04;;;;;;;15.18;4.97;;;;;;;5.72;35.67;95734.56;5044384;28;20101;-82
2022/03/18 10:45:30;;;;;;;10.65;4.97;;;;;;;5.79;36.51;95735.22;5044591;28;20097;-83
2022/03/18 10:48:13;;;;;;;12.48;5.25;;;;;;;5.87;35.69;95738.53;5044396;28;20216;-82
2022/03/18 10:50:40;;;;;;;13.15;5.45;;;;;;;6.02;34.48;95725.59;5043538;28;20021;-82
2022/03/18 10:53:10;;;;;;;15.05;5.20;;;;;;;6.09;34.61;95731.56;5044060;28;20101;-82
2022/03/18 10:55:44;;;;;;;11.38;6.10;;;;;;;6.08;34.54;95726.50;5026252;28;20021;-82
2022/03/18 10:58:18;;;;;;;10.57;5.90;;;;;;;5.98;34.93;95724.47;5044281;28;20021;-82
2022/03/18 11:00:51;;;;;;;10.35;5.57;;;;;;;5.99;32.80;95724.22;5044094;28;20025;-82
2022/03/18 11:03:18;;;;;;;16.58;4.85;;;;;;;5.93;33.11;95722.50;5043998;28;20017;-82
2022/03/18 11:05:50;;;;;;;11.65;5.13;;;;;;;5.99;33.33;95724.22;5043969;28;20021;-82
2022/03/18 11:08:24;;;;;;;9.32;4.97;;;;;;;6.03;33.13;95713.97;5043928;28;20312;-83
2022/03/18 11:14:00;;;;;;;13.88;5.53;;;;;;;6.15;32.25;95711.28;5044031;28;20139;-82
2022/03/18 11:16:31;;;;;;;13.27;4.57;;;;;;;6.06;32.35;95716.13;5043853;28;20111;-82
2022/03/18 11:18:58;;;;;;;10.77;4.72;;;;;;;6.16;32.20;95697.78;5043762;28;20025;-83
2022/03/18 11:21:35;;;;;;;13.70;4.85;;;;;;;5.89;32.52;95704.69;5043583;28;20224;-82
2022/03/18 11:24:03;;;;;;;17.33;4.97;;;;;;;6.00;32.82;95709.16;5043700;28;20243;-82
2022/03/18 11:26:29;;;;;;;10.57;4.72;;;;;;;6.20;33.71;95712.13;5043745;28;20017;-81
2022/03/18 11:29:06;;;;;;;15.82;5.68;;;;;;;6.34;33.19;95711.84;5043670;28;20021;-82
2022/03/18 11:31:33;;;;;;;15.02;6.20;;;;;;;6.45;33.18;95710.94;5043669;28;20021;-82
2022/03/18 11:34:14;;;;;;;15.65;5.13;;;;;;;6.55;32.25;95699.69;5043045;28;20033;-82
2022/03/18 11:37:09;;;;;;;9.20;4.57;;;;;;;6.77;31.33;95707.72;5043645;28;20029;-82
2022/03/18 11:39:35;;;;;;;10.88;4.63;;;;;;;6.77;30.18;95699.75;5043372;28;20025;-82
2022/03/18 11:42:09;;;;;;;9.88;5.07;;;;;;;6.94;30.96;95695.25;5043267;28;20189;-81
2022/03/18 11:44:43;;;;;;;9.10;4.28;;;;;;;7.22;30.73;95704.88;5043111;28;20022;-82
2022/03/18 11:47:27;;;;;;;10.75;4.57;;;;;;;7.48;30.09;95693.78;5043139;28;20084;-81
2022/03/18 11:49:52;;;;;;;12.18;5.10;;;;;;;7.67;30.88;95694.22;5042896;28;20025;-82
2022/03/18 11:52:21;;;;;;;12.35;5.00;;;;;;;7.76;30.05;95696.19;5043078;28;20032;-82
2022/03/18 11:54:50;;;;;;;13.98;4.80;;;;;;;7.86;29.22;95690.19;5042751;28;20025;-81
2022/03/18 11:57:42;;;;;;;12.48;5.30;;;;;;;7.91;28.56;95687.56;5043098;28;20219;-81
2022/03/18 12:00:36;;;;;;;11.70;4.63;;;;;;;7.88;28.38;95682.78;5042922;28;20021;-82
2022/03/18 12:03:02;;;;;;;10.25;4.78;;;;;;;7.88;28.70;95682.00;5042775;28;20084;-81
2022/03/18 12:05:31;;;;;;;8.95;4.53;;;;;;;7.92;29.55;95683.09;5042943;28;20047;-81
2022/03/18 12:07:59;;;;;;;8.07;4.50;;;;;;;8.01;28.61;95684.22;5042831;28;20046;-81